Portada
METAR-TAF:

METAR-TAF

Aeroports :

Douala, Camerun

latitud: 04-00N, longitud: 009-44E, altitud: 10 m

Observació

L'informe es va fer fa 52 minuts, a les 19:00 UTC
Vent calma
Temperatura 23°C
Humitat 100%
Pressió 1016 hPa
Visibilitat: 4000 m
Núvols disperses a una alçada de 800 ft
Cel ennuvolat a una alçada de 1300 ft
Escasses núvols a una alçada de 1600 ft, Cumulonimbus.
pluja, plugim

METAR: FKKD 241900Z 00000KT 4000 -RADZ SCT008 BKN013 FEW016CB 23/23 Q1016 TEMPO 6000 -DZ

Hora: 20:52 (19:52 UTC)

Pronòstic

L'informe es va fer fa 2 hores i 52 minuts, a les 17:00 UTC
Pronòstic vàlid del 24 a les 18 UTC al 25 a les 24 UTC
Vent 5 kt del Oest/Sud-Oest
Visibilitat: 8000 m
Núvols disperses a una alçada de 600 ft
Cel ennuvolat a una alçada de 1300 ft
Escasses núvols a una alçada de 1600 ft, Cumulonimbus.
pluja, plugim
Temporalment
l' 24 a les 18 UTC al 25 a les 06 UTC
Visibilitat: 3000 m
pluja, plugim

TAF: FKKD 241700Z 2418/2524 24005KT 8000 -RADZ SCT006 BKN013 FEW016CB TEMPO 2418/2506 3000 RADZ

Observacions i pronòstics meteorològics de més de 4000 aeroports (METAR i TAF).

Les estacions disponibles són els punts grocs i vermells al mapa.

Posi el ratolí al punt desitjat per veure el nom de l'estació.

Feu clic per veure les observacions i els pronòstics meteorològics.

Per canviar el mapa: feu clic els botons verds amb una creu de color negre per apropar; al botó verd amb un guió per allunyar la imatge; o en les fletxes verdes per a mapes adjacents.


METAR-TAF: